Time;durP1;ratioP1;P1;durP2;ratioP2;P2;SDS_P1;SDS_P2;PMS_P1;PMS_P2;Temp;Humidity;BMP_temperature;BMP_pressure;BME280_temperature;BME280_humidity;BME280_pressure;Samples;Min_cycle;Max_cycle;Signal;HPM_P1;HPM_P2
2021/12/18 00:00:36;;;;;;;1.20;1.20;;;;;;;3.82;60.16;102767.78;6341031;28;20280;-78
2021/12/18 00:03:40;;;;;;;1.50;1.50;;;;;;;3.90;59.72;102773.31;6340968;28;20392;-77
2021/12/18 00:10:24;;;;;;;2.53;1.30;;;;;;;3.90;60.00;102773.31;6252973;24;20352;-77
2021/12/18 00:13:29;;;;;;;1.17;1.17;;;;;;;3.87;60.23;102768.16;6004724;29;20226;-77
2021/12/18 00:16:33;;;;;;;1.70;1.27;;;;;;;3.93;60.17;102757.56;6004566;29;20244;-77
2021/12/18 00:19:39;;;;;;;1.80;1.70;;;;;;;3.88;60.23;102748.16;6006146;29;20202;-77
2021/12/18 00:22:44;;;;;;;1.47;1.47;;;;;;;3.90;60.09;102738.81;6006375;29;20194;-77
2021/12/18 00:25:50;;;;;;;1.83;1.83;;;;;;;3.97;60.10;102737.19;6006256;29;20204;-77
2021/12/18 00:28:54;;;;;;;1.57;1.43;;;;;;;3.79;61.00;102732.72;6006040;29;20226;-77
2021/12/18 00:31:58;;;;;;;1.47;1.27;;;;;;;3.86;60.71;102722.97;6006203;29;20256;-77
2021/12/18 00:35:04;;;;;;;1.50;1.40;;;;;;;4.03;60.24;102724.84;6005958;29;20196;-77
2021/12/18 00:38:09;;;;;;;1.13;1.13;;;;;;;3.89;60.72;102733.53;6004865;29;20361;-76
2021/12/18 00:41:34;;;;;;;1.27;1.27;;;;;;;4.12;60.12;102729.34;6004989;29;20435;-77
2021/12/18 00:44:39;;;;;;;1.20;1.20;;;;;;;4.03;60.42;102733.00;6006216;29;20195;-77
2021/12/18 00:47:44;;;;;;;1.27;1.17;;;;;;;4.23;60.01;102729.13;6005805;29;20198;-77
2021/12/18 00:50:50;;;;;;;1.97;1.20;;;;;;;4.35;59.67;102722.44;6006214;29;20261;-77
2021/12/18 00:53:54;;;;;;;1.53;1.43;;;;;;;4.09;60.50;102718.78;6005706;29;20201;-77
2021/12/18 00:57:01;;;;;;;1.30;1.30;;;;;;;4.42;59.67;102718.13;6006004;29;20249;-77
2021/12/18 01:00:09;;;;;;;1.33;0.93;;;;;;;4.42;59.82;102699.06;6005668;29;20195;-77
2021/12/18 01:03:20;;;;;;;3.90;1.20;;;;;;;4.30;59.80;102700.31;6006240;29;20227;-77
2021/12/18 01:06:25;;;;;;;1.20;1.20;;;;;;;4.16;60.24;102709.00;6004713;29;20206;-77
2021/12/18 01:09:45;;;;;;;1.30;1.30;;;;;;;4.25;60.30;102718.94;6003402;29;20423;-77
2021/12/18 01:12:53;;;;;;;4.13;1.37;;;;;;;4.60;59.57;102713.47;6004241;29;20195;-77
2021/12/18 01:16:06;;;;;;;1.73;1.40;;;;;;;4.67;58.98;102714.56;6004110;29;20202;-77
2021/12/18 01:22:48;;;;;;;2.27;1.20;;;;;;;4.75;59.33;102706.47;6003455;29;20196;-77
2021/12/18 01:25:54;;;;;;;2.50;1.30;;;;;;;4.57;59.94;102694.75;6003063;29;20216;-77
2021/12/18 01:29:00;;;;;;;1.23;1.13;;;;;;;4.85;59.39;102694.59;6003095;29;20234;-77
2021/12/18 01:32:05;;;;;;;1.00;1.00;;;;;;;4.59;60.15;102698.19;6003000;29;20218;-77
2021/12/18 01:35:11;;;;;;;1.63;1.30;;;;;;;4.73;59.92;102707.63;6003892;29;20194;-76
2021/12/18 01:38:17;;;;;;;1.53;1.40;;;;;;;4.85;59.70;102694.59;6003764;29;20220;-76
2021/12/18 01:41:22;;;;;;;1.20;1.20;;;;;;;4.65;60.25;102689.34;6004062;29;20261;-77
2021/12/18 01:44:54;;;;;;;1.10;1.10;;;;;;;4.79;60.44;102690.63;6003896;29;20227;-77
2021/12/18 01:51:24;;;;;;;1.10;1.10;;;;;;;4.90;60.54;102692.25;6003816;29;20196;-76
2021/12/18 01:54:29;;;;;;;2.03;1.07;;;;;;;5.04;60.51;102699.81;6003011;29;20195;-76
2021/12/18 01:57:33;;;;;;;1.90;1.03;;;;;;;4.93;60.40;102689.19;6005048;29;20226;-77
2021/12/18 02:00:41;;;;;;;2.20;1.20;;;;;;;5.02;60.51;102707.28;6005061;29;20268;-77
2021/12/18 02:03:47;;;;;;;1.20;1.20;;;;;;;5.28;59.69;102705.38;6004494;29;20454;-77
2021/12/18 02:06:52;;;;;;;1.53;1.20;;;;;;;5.23;59.93;102699.56;6003444;29;20398;-77
2021/12/18 02:10:02;;;;;;;1.17;1.17;;;;;;;5.24;59.60;102693.13;6003704;29;20247;-77
2021/12/18 02:13:21;;;;;;;3.33;1.17;;;;;;;5.23;59.88;102691.38;6004272;29;20312;-77
2021/12/18 02:19:59;;;;;;;1.10;1.10;;;;;;;5.00;60.79;102660.31;6003335;29;20219;-77
2021/12/18 02:23:05;;;;;;;1.30;1.20;;;;;;;5.29;59.92;102658.06;6002775;29;20479;-76
2021/12/18 02:26:12;;;;;;;1.00;1.00;;;;;;;5.00;61.20;102663.88;6003097;29;20263;-77
2021/12/18 02:29:16;;;;;;;2.33;1.27;;;;;;;4.94;61.32;102655.50;6003327;29;20200;-78
2021/12/18 02:32:22;;;;;;;1.10;1.10;;;;;;;5.03;60.67;102665.44;6003575;29;20193;-76
2021/12/18 02:35:28;;;;;;;1.73;1.30;;;;;;;4.90;61.31;102659.56;6002843;29;20198;-76
2021/12/18 02:38:57;;;;;;;1.83;1.10;;;;;;;4.94;61.27;102650.06;6003000;29;20261;-77
2021/12/18 02:42:13;;;;;;;1.00;1.00;;;;;;;4.91;61.56;102640.34;6003094;29;20194;-77
2021/12/18 02:45:18;;;;;;;1.77;1.13;;;;;;;4.94;61.65;102633.72;6001749;29;20424;-77
2021/12/18 02:48:24;;;;;;;0.90;0.90;;;;;;;5.01;61.59;102613.00;6002590;29;20234;-77
2021/12/18 02:51:28;;;;;;;0.93;0.93;;;;;;;5.01;61.34;102621.19;6002021;29;20195;-76
2021/12/18 02:54:34;;;;;;;1.10;1.10;;;;;;;4.89;61.79;102608.84;6002591;29;20230;-77
2021/12/18 02:57:38;;;;;;;0.90;0.90;;;;;;;5.12;61.19;102612.69;6001524;29;20582;-77
2021/12/18 03:00:43;;;;;;;1.80;0.93;;;;;;;4.63;62.41;102604.31;6002676;29;20196;-77
2021/12/18 03:03:49;;;;;;;1.17;1.07;;;;;;;5.03;61.63;102600.09;6000910;29;20214;-77
2021/12/18 03:06:58;;;;;;;1.00;1.00;;;;;;;4.98;61.86;102605.16;6001904;29;20268;-77
2021/12/18 03:26:54;;;;;;;1.17;1.00;;;;;;;5.41;60.83;102585.91;6025537;29;20202;-77
2021/12/18 03:29:58;;;;;;;0.93;0.93;;;;;;;5.29;61.59;102584.50;6025330;29;20198;-77
2021/12/18 03:33:03;;;;;;;0.93;0.93;;;;;;;5.26;61.87;102587.56;6024913;29;20192;-76
2021/12/18 03:36:10;;;;;;;1.00;1.00;;;;;;;5.50;61.54;102582.16;6024888;29;20198;-77
2021/12/18 03:39:15;;;;;;;1.00;1.00;;;;;;;5.36;61.43;102567.34;6024984;29;20223;-77
2021/12/18 03:42:22;;;;;;;2.10;0.90;;;;;;;5.33;62.14;102558.63;6023737;29;20390;-77
2021/12/18 03:45:26;;;;;;;1.10;1.10;;;;;;;5.26;62.00;102558.47;6024913;29;20199;-77
2021/12/18 03:48:30;;;;;;;1.00;1.00;;;;;;;5.20;62.76;102550.09;6025901;29;20219;-76
2021/12/18 03:51:34;;;;;;;1.10;1.10;;;;;;;5.40;61.94;102554.22;6027845;29;20391;-76
2021/12/18 03:54:39;;;;;;;0.80;0.80;;;;;;;5.24;62.60;102543.31;6028825;29;20234;-76
2021/12/18 03:57:45;;;;;;;1.10;1.10;;;;;;;5.24;63.13;102543.31;6028134;29;20215;-77
2021/12/18 04:00:49;;;;;;;0.97;0.97;;;;;;;5.37;62.84;102546.41;6027722;29;20390;-77
2021/12/18 04:03:54;;;;;;;0.90;0.90;;;;;;;5.50;62.63;102538.56;6027689;29;20539;-77
2021/12/18 04:07:00;;;;;;;1.27;0.90;;;;;;;5.62;62.86;102536.38;6028918;29;20282;-77
2021/12/18 04:10:05;;;;;;;0.97;0.97;;;;;;;5.64;62.47;102535.16;6028419;29;20254;-77
2021/12/18 04:13:17;;;;;;;1.13;1.13;;;;;;;5.77;61.75;102535.50;6028634;29;20201;-76
2021/12/18 04:16:22;;;;;;;0.97;0.97;;;;;;;5.64;62.45;102517.97;6027325;29;20393;-77
2021/12/18 04:19:27;;;;;;;0.90;0.90;;;;;;;5.32;63.64;102516.09;6027255;29;20240;-77
2021/12/18 04:22:31;;;;;;;0.83;0.83;;;;;;;5.43;63.54;102502.97;6028108;29;20224;-76
2021/12/18 04:25:36;;;;;;;0.83;0.83;;;;;;;5.81;62.39;102520.50;6029004;29;20226;-77
2021/12/18 04:28:41;;;;;;;0.90;0.90;;;;;;;5.63;62.92;102517.09;6028570;29;20230;-77
2021/12/18 04:31:46;;;;;;;1.00;1.00;;;;;;;5.65;62.72;102509.63;6029384;29;20209;-77
2021/12/18 04:34:50;;;;;;;1.07;0.80;;;;;;;5.52;63.16;102498.38;6029102;29;20200;-77
2021/12/18 04:37:55;;;;;;;1.00;1.00;;;;;;;5.35;63.76;102496.66;6027884;29;20529;-77
2021/12/18 04:40:59;;;;;;;0.97;0.83;;;;;;;5.27;64.19;102508.41;6029167;29;20223;-77
2021/12/18 04:44:06;;;;;;;0.80;0.80;;;;;;;5.35;63.57;102485.75;6028752;29;20305;-77
2021/12/18 04:47:11;;;;;;;1.30;1.20;;;;;;;5.15;64.28;102489.81;6028205;29;20204;-77
2021/12/18 04:50:16;;;;;;;0.80;0.80;;;;;;;5.27;63.79;102491.22;6028551;29;20200;-77
2021/12/18 04:53:20;;;;;;;0.90;0.90;;;;;;;5.50;63.32;102497.69;6028906;29;20224;-77
2021/12/18 04:56:25;;;;;;;1.03;1.00;;;;;;;5.24;64.00;102494.28;6027512;29;20367;-77
2021/12/18 04:59:30;;;;;;;0.90;0.90;;;;;;;5.46;63.15;102477.25;6028134;29;20229;-77
2021/12/18 05:02:38;;;;;;;0.80;0.80;;;;;;;5.21;64.04;102465.50;6028259;29;20195;-79
2021/12/18 05:05:42;;;;;;;1.00;1.00;;;;;;;5.30;64.04;102471.78;6027841;29;20260;-77
2021/12/18 05:08:46;;;;;;;0.83;0.83;;;;;;;5.27;63.88;102472.16;6027938;29;20308;-77
2021/12/18 05:11:51;;;;;;;0.83;0.83;;;;;;;4.99;64.71;102468.03;6028028;29;20220;-77
2021/12/18 05:14:57;;;;;;;1.10;0.93;;;;;;;5.19;64.43;102458.53;6028033;29;20224;-77
2021/12/18 05:18:01;;;;;;;1.90;0.90;;;;;;;5.19;64.32;102459.34;6027015;29;20455;-77
2021/12/18 05:21:06;;;;;;;1.40;1.10;;;;;;;5.15;64.23;102446.25;6028216;29;20221;-77
2021/12/18 05:24:10;;;;;;;1.03;1.03;;;;;;;4.95;64.74;102440.28;6026899;29;20565;-77
2021/12/18 05:27:15;;;;;;;0.80;0.80;;;;;;;5.14;64.55;102450.00;6026883;29;20447;-77
2021/12/18 05:30:20;;;;;;;2.53;1.10;;;;;;;5.04;64.73;102444.72;6027883;29;20206;-77
2021/12/18 05:33:24;;;;;;;0.90;0.90;;;;;;;5.08;64.21;102456.97;6028004;29;20234;-77
2021/12/18 05:36:36;;;;;;;1.00;1.00;;;;;;;5.09;64.25;102446.94;6026574;29;20194;-77
2021/12/18 05:39:41;;;;;;;0.93;0.93;;;;;;;5.02;64.48;102435.00;6026893;29;20564;-78
2021/12/18 05:42:45;;;;;;;0.83;0.83;;;;;;;5.17;64.32;102444.22;6032147;29;20194;-77
2021/12/18 05:45:51;;;;;;;0.90;0.90;;;;;;;5.27;63.57;102437.56;6030370;29;20225;-77
2021/12/18 05:48:56;;;;;;;1.10;0.80;;;;;;;5.45;63.21;102426.50;6030516;29;20351;-77
2021/12/18 05:52:00;;;;;;;0.90;0.90;;;;;;;5.17;64.03;102444.22;6032599;29;20200;-77
2021/12/18 05:55:06;;;;;;;0.73;0.73;;;;;;;5.01;64.56;102427.88;6030724;29;20195;-77
2021/12/18 05:58:13;;;;;;;0.90;0.90;;;;;;;5.19;64.14;102423.13;6026676;29;20256;-77
2021/12/18 06:01:20;;;;;;;0.97;0.97;;;;;;;5.06;64.55;102426.34;6025816;29;20220;-77
2021/12/18 06:04:24;;;;;;;0.90;0.90;;;;;;;5.16;64.14;102426.19;6025971;29;20408;-77
2021/12/18 06:07:30;;;;;;;0.90;0.90;;;;;;;5.07;64.30;102416.28;6026080;29;20228;-77
2021/12/18 06:10:36;;;;;;;0.97;0.90;;;;;;;4.92;65.38;102423.41;6025189;29;20248;-77
2021/12/18 06:13:42;;;;;;;1.03;1.03;;;;;;;5.18;64.10;102407.78;6025887;29;20196;-77
2021/12/18 06:16:47;;;;;;;1.13;1.13;;;;;;;5.15;64.00;102419.88;6026819;29;20229;-77
2021/12/18 06:19:51;;;;;;;1.27;0.93;;;;;;;5.27;63.61;102413.06;6026679;29;20226;-77
2021/12/18 06:22:57;;;;;;;1.00;1.00;;;;;;;5.37;62.99;102405.56;6026220;29;20193;-77
2021/12/18 06:26:01;;;;;;;0.80;0.80;;;;;;;5.36;63.15;102411.19;6025768;29;20393;-77
2021/12/18 06:29:06;;;;;;;1.00;0.93;;;;;;;5.34;63.41;102430.44;6025512;29;20259;-77
2021/12/18 06:32:12;;;;;;;1.00;1.00;;;;;;;5.35;63.60;102421.25;6026470;29;20203;-77
2021/12/18 06:35:17;;;;;;;0.80;0.80;;;;;;;5.32;63.43;102416.13;6026619;29;20202;-77
2021/12/18 06:38:21;;;;;;;0.87;0.87;;;;;;;5.37;63.33;102413.75;6026579;29;20204;-77
2021/12/18 06:41:25;;;;;;;0.83;0.83;;;;;;;5.44;63.34;102408.47;6025144;29;20223;-77
2021/12/18 06:44:30;;;;;;;0.90;0.90;;;;;;;5.44;63.10;102408.47;6026414;29;20195;-77
2021/12/18 06:47:36;;;;;;;1.10;1.10;;;;;;;5.44;62.41;102392.13;6026358;29;20271;-77
2021/12/18 06:50:41;;;;;;;1.00;1.00;;;;;;;5.34;63.30;102403.22;6025678;29;20225;-77
2021/12/18 06:53:46;;;;;;;1.33;1.00;;;;;;;5.54;63.03;102398.25;6024754;29;20515;-77
2021/12/18 06:56:50;;;;;;;1.17;1.10;;;;;;;5.43;63.26;102412.22;6026590;29;20195;-77
2021/12/18 06:59:55;;;;;;;1.03;1.03;;;;;;;5.56;62.95;102412.53;6026110;29;20232;-77
2021/12/18 07:03:01;;;;;;;1.00;1.00;;;;;;;5.58;62.76;102393.31;6025079;29;20504;-77
2021/12/18 07:06:06;;;;;;;0.90;0.90;;;;;;;5.76;62.24;102397.50;6024967;29;20255;-78
2021/12/18 07:09:10;;;;;;;0.80;0.80;;;;;;;5.90;61.92;102396.81;6025927;29;20244;-78
2021/12/18 07:12:15;;;;;;;0.80;0.80;;;;;;;5.91;61.88;102395.75;6024932;29;20574;-77
2021/12/18 07:15:19;;;;;;;1.63;1.17;;;;;;;5.68;62.20;102405.69;6024835;29;20202;-77
2021/12/18 07:18:25;;;;;;;1.00;1.00;;;;;;;5.45;63.46;102404.72;6025571;29;20220;-77
2021/12/18 07:21:29;;;;;;;0.77;0.77;;;;;;;5.54;63.08;102402.84;6025836;29;20531;-77
2021/12/18 07:24:34;;;;;;;0.80;0.80;;;;;;;5.90;61.91;102396.81;6029501;29;20193;-77
2021/12/18 07:27:38;;;;;;;0.93;0.90;;;;;;;6.24;61.03;102395.69;6028957;29;20194;-77
2021/12/18 07:30:43;;;;;;;0.90;0.90;;;;;;;5.95;62.46;102380.75;6028693;29;20206;-77
2021/12/18 07:33:48;;;;;;;0.90;0.90;;;;;;;5.74;62.24;102388.66;6029804;29;20260;-77
2021/12/18 07:36:53;;;;;;;0.90;0.90;;;;;;;6.42;60.93;102383.50;6029144;29;20241;-76
2021/12/18 07:39:57;;;;;;;0.80;0.80;;;;;;;6.69;59.88;102390.31;6028050;29;20417;-77
2021/12/18 07:43:02;;;;;;;0.80;0.80;;;;;;;6.61;60.17;102376.72;6029067;29;20226;-76
2021/12/18 07:46:06;;;;;;;0.70;0.70;;;;;;;6.70;59.65;102383.84;6029535;29;20235;-76
2021/12/18 07:49:12;;;;;;;0.83;0.83;;;;;;;6.36;60.67;102383.34;6029098;29;20195;-77
2021/12/18 07:52:16;;;;;;;0.90;0.90;;;;;;;6.45;60.85;102383.13;6027844;29;20446;-77
2021/12/18 07:55:21;;;;;;;0.90;0.90;;;;;;;6.44;60.95;102369.66;6028558;29;20543;-77
2021/12/18 07:58:26;;;;;;;0.97;0.97;;;;;;;6.59;60.40;102374.19;6028876;29;20362;-77
2021/12/18 08:01:30;;;;;;;1.00;1.00;;;;;;;6.27;61.32;102366.16;6029608;29;20222;-77
2021/12/18 08:04:36;;;;;;;0.90;0.90;;;;;;;6.65;60.69;102367.16;6028521;29;20485;-77
2021/12/18 08:07:41;;;;;;;0.90;0.90;;;;;;;6.69;60.63;102352.94;6029799;29;20223;-77
2021/12/18 08:10:45;;;;;;;0.80;0.80;;;;;;;6.99;59.65;102344.88;6028812;29;20241;-78
2021/12/18 08:13:49;;;;;;;0.90;0.90;;;;;;;6.76;60.57;102336.69;6029461;29;20277;-77
2021/12/18 08:16:53;;;;;;;0.90;0.90;;;;;;;6.60;61.39;102331.38;6028740;29;20231;-78
2021/12/18 08:20:00;;;;;;;1.00;1.00;;;;;;;6.59;61.52;102329.66;6028250;29;20192;-78
2021/12/18 08:23:06;;;;;;;0.80;0.80;;;;;;;6.68;61.25;102329.41;6028222;29;20286;-78
2021/12/18 08:26:11;;;;;;;1.10;1.10;;;;;;;6.41;61.92;102326.34;6029090;29;20194;-77
2021/12/18 08:29:15;;;;;;;1.23;0.87;;;;;;;6.62;61.60;102321.09;6029550;29;20228;-77
2021/12/18 08:32:20;;;;;;;0.93;0.90;;;;;;;6.74;61.33;102311.44;6027925;29;20565;-77
2021/12/18 08:35:26;;;;;;;1.03;1.03;;;;;;;6.47;62.46;102315.59;6027633;29;20195;-77
2021/12/18 08:38:31;;;;;;;0.80;0.80;;;;;;;6.65;61.67;102307.09;6028632;29;20193;-77
2021/12/18 08:41:38;;;;;;;0.90;0.90;;;;;;;6.72;61.10;102312.66;6027796;29;20425;-77
2021/12/18 08:44:42;;;;;;;0.70;0.70;;;;;;;6.50;62.04;102311.66;6027948;29;20194;-77
2021/12/18 08:47:47;;;;;;;1.27;0.93;;;;;;;6.75;61.28;102313.16;6027487;29;20195;-77
2021/12/18 08:50:53;;;;;;;0.90;0.90;;;;;;;6.65;61.93;102301.63;6027805;29;20277;-77
2021/12/18 08:53:57;;;;;;;0.80;0.80;;;;;;;6.57;61.70;102304.44;6028677;29;20201;-76
2021/12/18 08:57:02;;;;;;;0.80;0.80;;;;;;;6.66;61.35;102303.31;6028079;29;20265;-77
2021/12/18 09:00:10;;;;;;;0.70;0.70;;;;;;;6.76;61.55;102303.91;6015520;29;20266;-77
2021/12/18 09:03:17;;;;;;;0.90;0.90;;;;;;;6.55;62.03;102298.31;6004742;29;20222;-77
2021/12/18 09:06:23;;;;;;;0.90;0.90;;;;;;;6.36;62.31;102296.03;6004566;29;20207;-77
2021/12/18 09:09:28;;;;;;;1.13;0.80;;;;;;;6.55;61.87;102290.13;6004650;29;20244;-77
2021/12/18 09:12:32;;;;;;;0.70;0.70;;;;;;;6.50;61.65;102276.16;6006118;29;20204;-77
2021/12/18 09:15:37;;;;;;;0.90;0.90;;;;;;;6.64;61.45;102284.41;6004636;29;20202;-77
2021/12/18 09:18:41;;;;;;;0.90;0.90;;;;;;;6.61;61.73;102289.38;6004561;29;20423;-77
2021/12/18 09:21:47;;;;;;;1.00;1.00;;;;;;;6.88;60.46;102301.63;6004347;29;20223;-77
2021/12/18 09:24:51;;;;;;;0.97;0.97;;;;;;;6.75;61.15;102285.88;6004916;29;20262;-77
2021/12/18 09:27:56;;;;;;;0.90;0.90;;;;;;;6.54;61.12;102278.34;6004221;29;20531;-77
2021/12/18 09:31:01;;;;;;;0.90;0.90;;;;;;;6.66;61.32;102284.22;6003912;29;20392;-77
2021/12/18 09:34:05;;;;;;;0.87;0.87;;;;;;;6.57;61.22;102279.84;6005399;29;20195;-77
2021/12/18 09:37:11;;;;;;;0.87;0.87;;;;;;;6.69;61.17;102286.59;6004940;29;20197;-77
2021/12/18 09:40:17;;;;;;;1.30;1.30;;;;;;;6.77;60.87;102272.88;6004095;29;20202;-76
2021/12/18 09:43:23;;;;;;;1.20;1.00;;;;;;;6.70;60.61;102271.91;6004222;29;20223;-77
2021/12/18 09:46:31;;;;;;;0.93;0.93;;;;;;;6.33;61.48;102285.47;6002308;29;20194;-76
2021/12/18 09:49:35;;;;;;;2.07;1.13;;;;;;;6.71;60.62;102270.88;6003401;29;20273;-76
2021/12/18 09:52:41;;;;;;;0.97;0.97;;;;;;;6.80;60.33;102256.13;6004003;29;20217;-76
2021/12/18 09:55:45;;;;;;;1.10;1.10;;;;;;;6.83;60.14;102266.69;6003664;29;20253;-76
2021/12/18 09:58:50;;;;;;;1.10;1.10;;;;;;;6.82;60.55;102259.50;6004926;29;20226;-78
2021/12/18 10:01:54;;;;;;;2.53;1.20;;;;;;;6.46;60.92;102274.81;6004589;29;20222;-78
2021/12/18 10:05:00;;;;;;;0.90;0.90;;;;;;;6.49;61.01;102258.09;6004309;29;20266;-77
2021/12/18 10:08:15;;;;;;;1.10;1.10;;;;;;;6.80;60.64;102256.13;6004697;29;20248;-78
2021/12/18 10:11:20;;;;;;;0.90;0.90;;;;;;;6.46;60.76;102251.13;6004133;29;20235;-81
2021/12/18 10:14:34;;;;;;;1.10;1.10;;;;;;;6.55;61.06;102241.00;6006272;29;20225;-78
2021/12/18 10:17:42;;;;;;;0.87;0.87;;;;;;;6.63;60.83;102241.75;6004331;29;20210;-78
2021/12/18 10:20:46;;;;;;;1.13;1.13;;;;;;;6.28;61.42;102261.47;6003223;29;20195;-79
2021/12/18 10:23:54;;;;;;;0.90;0.90;;;;;;;6.51;61.45;102239.66;6005057;29;20223;-79
2021/12/18 10:27:00;;;;;;;1.20;1.20;;;;;;;6.39;61.21;102241.09;6005588;29;20193;-77
2021/12/18 10:30:19;;;;;;;0.90;0.90;;;;;;;6.80;60.25;102249.81;6003918;29;20276;-78
2021/12/18 10:33:28;;;;;;;0.90;0.90;;;;;;;6.62;60.71;102241.94;6004522;29;20199;-78
2021/12/18 10:36:33;;;;;;;1.10;1.10;;;;;;;6.76;60.51;102237.56;6007072;29;20194;-79
2021/12/18 10:39:40;;;;;;;1.10;1.10;;;;;;;6.56;60.92;102237.22;6005318;29;20195;-79
2021/12/18 10:42:46;;;;;;;1.00;1.00;;;;;;;6.68;60.36;102242.06;6005919;29;20222;-79
2021/12/18 10:45:51;;;;;;;1.13;1.13;;;;;;;6.62;60.53;102241.94;6004760;29;20199;-80
2021/12/18 10:48:57;;;;;;;6.00;1.10;;;;;;;6.64;60.97;102223.50;6004225;29;20199;-79
2021/12/18 10:52:01;;;;;;;1.10;1.10;;;;;;;6.59;60.63;102215.03;6004178;29;20234;-79
2021/12/18 10:55:07;;;;;;;1.23;0.97;;;;;;;6.71;60.46;102213.53;6002856;29;20367;-78
2021/12/18 10:58:20;;;;;;;1.10;1.10;;;;;;;6.54;61.27;102206.53;6002440;29;20260;-78
2021/12/18 11:01:24;;;;;;;1.10;1.10;;;;;;;6.60;60.82;102189.44;6003144;29;20195;-79
2021/12/18 11:04:31;;;;;;;1.00;1.00;;;;;;;6.63;60.70;102181.69;6002790;29;20390;-78
2021/12/18 11:07:41;;;;;;;1.17;0.90;;;;;;;6.79;60.34;102188.91;6003083;29;20199;-77
2021/12/18 11:11:05;;;;;;;1.50;1.10;;;;;;;6.69;60.29;102177.38;6002153;29;20272;-79
2021/12/18 11:14:11;;;;;;;1.13;1.13;;;;;;;6.70;60.87;102173.63;6004033;29;20205;-77
2021/12/18 11:17:17;;;;;;;1.10;1.10;;;;;;;6.90;60.19;102169.34;6001709;29;20211;-76
2021/12/18 11:20:21;;;;;;;0.90;0.90;;;;;;;6.95;60.13;102147.78;6002840;29;20359;-78
2021/12/18 11:23:32;;;;;;;1.00;1.00;;;;;;;6.82;60.62;102133.91;6002151;29;20233;-77
2021/12/18 11:26:42;;;;;;;1.00;1.00;;;;;;;6.89;60.45;102134.03;6002383;29;20235;-76
2021/12/18 11:29:51;;;;;;;1.00;1.00;;;;;;;6.88;60.69;102126.88;6001874;29;20205;-77
2021/12/18 11:32:56;;;;;;;1.10;1.10;;;;;;;6.82;60.71;102123.00;6003443;29;20203;-79
2021/12/18 11:36:03;;;;;;;0.97;0.97;;;;;;;7.11;59.99;102106.63;6003230;29;20361;-79
2021/12/18 11:39:08;;;;;;;1.20;1.10;;;;;;;7.25;59.66;102108.47;6003543;29;20279;-78
2021/12/18 11:42:15;;;;;;;0.90;0.90;;;;;;;7.30;59.35;102106.00;6002267;29;20204;-78
2021/12/18 11:45:19;;;;;;;12.10;5.40;;;;;;;7.24;60.04;102095.88;6003716;29;20231;-78
2021/12/18 11:48:24;;;;;;;3.67;2.43;;;;;;;7.32;59.46;102090.25;6003852;29;20196;-79
2021/12/18 11:51:28;;;;;;;1.50;1.17;;;;;;;7.50;59.29;102083.56;6003555;29;20196;-79
2021/12/18 11:54:42;;;;;;;1.10;1.10;;;;;;;7.48;59.10;102077.44;6003448;29;20207;-80
2021/12/18 11:57:50;;;;;;;1.90;1.10;;;;;;;7.56;58.67;102077.28;6003367;29;20310;-79
2021/12/18 12:00:59;;;;;;;1.20;1.20;;;;;;;7.55;58.73;102070.16;6002752;29;20432;-76
2021/12/18 12:04:04;;;;;;;1.13;1.00;;;;;;;7.62;58.80;102071.06;6001271;29;20223;-77
2021/12/18 12:07:20;;;;;;;1.30;1.30;;;;;;;7.58;58.56;102081.53;6002268;29;20227;-77
2021/12/18 12:10:46;;;;;;;1.37;1.33;;;;;;;7.59;58.71;102072.28;6004950;29;20517;-77
2021/12/18 12:14:08;;;;;;;28.20;14.13;;;;;;;7.55;58.89;102071.00;6005267;29;20385;-77
2021/12/18 12:17:21;;;;;;;1.63;1.63;;;;;;;7.20;59.59;102061.75;6005624;29;20275;-77
2021/12/18 12:20:34;;;;;;;0.93;0.93;;;;;;;7.43;59.56;102049.84;6005559;29;20225;-76
2021/12/18 12:24:01;;;;;;;1.00;1.00;;;;;;;7.31;59.43;102050.34;6005221;29;20230;-77
2021/12/18 12:27:26;;;;;;;0.80;0.80;;;;;;;7.43;59.03;102036.19;6006084;29;20203;-77
2021/12/18 12:30:36;;;;;;;1.03;1.03;;;;;;;7.47;58.95;102052.00;6005198;29;20486;-77
2021/12/18 12:33:42;;;;;;;0.90;0.90;;;;;;;7.40;59.03;102036.56;6006058;29;20280;-77
2021/12/18 12:36:47;;;;;;;1.00;1.00;;;;;;;7.29;59.17;102022.38;6005549;29;20293;-77
2021/12/18 12:39:54;;;;;;;0.97;0.97;;;;;;;7.56;58.96;102017.16;6004192;29;20391;-77
2021/12/18 12:43:14;;;;;;;0.90;0.90;;;;;;;7.38;58.76;102014.03;6004913;29;20448;-77
2021/12/18 12:46:24;;;;;;;1.00;1.00;;;;;;;7.40;59.12;102006.50;6006815;29;20210;-78
2021/12/18 12:49:30;;;;;;;1.07;1.07;;;;;;;7.68;57.91;102010.16;6006517;29;20195;-78
2021/12/18 12:52:50;;;;;;;0.90;0.90;;;;;;;7.66;57.99;102001.28;6004829;29;20502;-78
2021/12/18 12:55:54;;;;;;;0.80;0.80;;;;;;;7.58;58.04;101995.97;6004622;29;20494;-78
2021/12/18 12:59:23;;;;;;;0.90;0.90;;;;;;;7.55;58.33;101990.88;6005480;29;20259;-78
2021/12/18 13:02:30;;;;;;;0.90;0.90;;;;;;;7.55;58.59;101972.59;6004883;29;20506;-78
2021/12/18 13:05:46;;;;;;;1.00;1.00;;;;;;;7.66;57.90;101984.88;6004407;29;20230;-78
2021/12/18 13:08:51;;;;;;;1.03;0.97;;;;;;;7.29;59.15;101967.72;6004677;29;20220;-77
2021/12/18 13:12:02;;;;;;;1.10;1.00;;;;;;;7.14;59.51;101964.19;6003673;29;20246;-76
2021/12/18 13:15:07;;;;;;;1.70;1.10;;;;;;;7.53;58.66;101949.25;6003416;29;20199;-76
2021/12/18 13:18:22;;;;;;;1.73;0.93;;;;;;;7.50;58.76;101952.38;6004219;29;20221;-76
2021/12/18 13:21:29;;;;;;;0.90;0.90;;;;;;;7.52;58.68;101933.88;6004461;29;20259;-77
2021/12/18 13:24:33;;;;;;;1.10;1.10;;;;;;;7.57;58.44;101931.41;6003148;29;20415;-77
2021/12/18 13:27:40;;;;;;;1.00;1.00;;;;;;;7.63;58.40;101925.97;6004200;29;20196;-77
2021/12/18 13:30:47;;;;;;;1.00;1.00;;;;;;;7.67;57.66;101937.38;6004222;29;20192;-77
2021/12/18 13:34:02;;;;;;;1.30;1.20;;;;;;;7.33;58.74;101935.38;6003091;29;20509;-77
2021/12/18 13:37:12;;;;;;;1.90;1.03;;;;;;;7.26;59.35;101934.47;6003590;29;20380;-77
2021/12/18 13:40:16;;;;;;;1.20;1.20;;;;;;;7.13;59.65;101939.78;6005054;29;20248;-77
2021/12/18 13:43:22;;;;;;;1.00;1.00;;;;;;;6.91;59.84;101936.22;6004633;29;20262;-77
2021/12/18 13:46:30;;;;;;;1.00;1.00;;;;;;;6.50;61.00;101932.34;6003783;29;20379;-77
2021/12/18 13:50:01;;;;;;;1.10;1.10;;;;;;;6.78;60.34;101930.59;6004075;29;20506;-78
2021/12/18 13:53:17;;;;;;;1.10;1.10;;;;;;;6.85;60.06;101927.94;6003937;29;20200;-78
2021/12/18 13:56:23;;;;;;;1.00;1.00;;;;;;;6.87;59.30;101934.88;6005000;29;20199;-77
2021/12/18 13:59:28;;;;;;;1.10;1.10;;;;;;;6.69;59.97;101937.19;6005037;29;20193;-78
2021/12/18 14:02:33;;;;;;;1.10;1.10;;;;;;;6.56;60.71;101920.66;6004668;29;20195;-78
2021/12/18 14:05:38;;;;;;;1.10;1.10;;;;;;;6.55;60.50;101913.50;6004396;29;20222;-79
2021/12/18 14:08:49;;;;;;;1.00;1.00;;;;;;;6.38;60.65;101912.00;6004917;29;20222;-79
2021/12/18 14:11:58;;;;;;;1.30;1.20;;;;;;;6.48;60.64;101907.94;6003707;29;20544;-77
2021/12/18 14:15:03;;;;;;;1.57;1.20;;;;;;;6.49;60.57;101895.16;6003470;29;20201;-76
2021/12/18 14:18:34;;;;;;;1.40;1.20;;;;;;;6.48;61.02;101896.19;6003040;29;20196;-77
2021/12/18 14:21:42;;;;;;;1.37;1.30;;;;;;;6.38;61.11;101879.28;6003547;29;20420;-78
2021/12/18 14:24:46;;;;;;;1.00;1.00;;;;;;;6.39;60.96;101878.25;6003714;29;20284;-79
2021/12/18 14:27:53;;;;;;;1.70;1.30;;;;;;;6.42;60.97;101883.34;6004326;29;20226;-78
2021/12/18 14:30:57;;;;;;;1.67;1.40;;;;;;;6.04;62.16;101869.78;6004509;29;20217;-79
2021/12/18 14:34:05;;;;;;;1.47;1.40;;;;;;;5.90;62.17;101861.59;6005253;29;20194;-80
2021/12/18 14:37:11;;;;;;;1.63;1.60;;;;;;;6.27;61.39;101853.31;6005279;29;20193;-78
2021/12/18 14:40:18;;;;;;;2.70;1.47;;;;;;;6.30;61.09;101854.81;6003176;29;20197;-78
2021/12/18 14:43:25;;;;;;;1.33;1.33;;;;;;;6.40;60.46;101844.50;6004368;29;20202;-78
2021/12/18 14:46:29;;;;;;;1.37;1.37;;;;;;;6.08;61.38;101852.03;6003719;29;20226;-78
2021/12/18 14:49:35;;;;;;;1.47;1.37;;;;;;;6.20;61.04;101848.81;6004379;29;20261;-78
2021/12/18 14:53:03;;;;;;;1.60;1.50;;;;;;;5.88;62.12;101844.59;6005102;29;20193;-78
2021/12/18 14:56:16;;;;;;;1.23;1.23;;;;;;;5.92;62.07;101835.00;6005182;29;20198;-78
2021/12/18 14:59:20;;;;;;;1.20;1.20;;;;;;;5.85;61.92;101845.81;6005086;29;20224;-78
2021/12/18 15:02:24;;;;;;;1.30;1.30;;;;;;;5.95;61.84;101840.06;6005411;29;20574;-80
2021/12/18 15:05:43;;;;;;;1.30;1.30;;;;;;;5.83;62.63;101836.16;6005274;29;20222;-79
2021/12/18 15:08:54;;;;;;;1.40;1.30;;;;;;;5.93;62.28;101810.28;6003169;29;20211;-78
2021/12/18 15:12:00;;;;;;;1.20;1.20;;;;;;;5.67;62.93;101799.03;6003829;29;20271;-79